Rhodanus — PGBC — position and weather

sailwx.info

Track history (hours):
 
Tides and Currents Weather Stations Pressure Air Temp Water Temp Dewpoint Dewpoint Depression Visibility Wind Speed Wind Dir Waves Ship Positions

Rhodanus

Last reported at 2016-Dec-09 22:33 UTC. Time now 2016-Dec-10 22:34 UTC.
Position N 39°01' W 009°50'.

Length 89 m; draft 4.4 m.

Type: Ship. MMSI: 245848000.

Date/timePositionNaut miles runAvg speedWind from/ knotsBaromVisibWave heightAir tempDewpointWater temp
2016-Dec-09 22:33N 39°01' W 009°50'9 9.5
2016-Dec-09 21:33N 38°52' W 009°50'10 9.6
2016-Dec-09 20:33N 38°42' W 009°50'9 9.3
2016-Dec-09 19:33N 38°33' W 009°48'9 8.8
2016-Dec-09 18:32N 38°24' W 009°45'250 7.3
2016-Dec-08 08:26N 35°59' W 005°29'7 8.5
2016-Dec-08 07:33N 36°01' W 005°20'9 8.3
2016-Dec-08 06:30N 36°03' W 005°09'169 8.9
2016-Dec-07 11:29N 36°44' W 001°46'76 9.5
2016-Dec-07 03:32N 37°34' W 000°35'10 9.9
2016-Dec-07 02:32N 37°42' W 000°28'159 9.4
2016-Dec-06 09:31N 39°59' E 001°16'9 8.9
2016-Dec-06 08:33N 40°07' E 001°21'9 8.6
2016-Dec-06 07:33N 40°14' E 001°26'9 8.7
2016-Dec-06 06:33N 40°22' E 001°32'9 8.9
2016-Dec-06 05:33N 40°30' E 001°37'9 8.7
2016-Dec-06 04:33N 40°37' E 001°43'9 8.6
2016-Dec-06 03:33N 40°45' E 001°48'10 9.0
2016-Dec-06 02:24N 40°54' E 001°55'  
2016-Dec-03 22:20N 40°49' E 001°53'6 7.4
2016-Dec-03 21:33N 40°44' E 001°49'8 7.8
2016-Dec-03 20:32N 40°37' E 001°45'8 7.9
2016-Dec-03 19:33N 40°30' E 001°40'8 8.3
2016-Dec-03 18:32N 40°22' E 001°35'8 8.3
2016-Dec-03 17:32N 40°15' E 001°30'8 8.2
2016-Dec-03 16:33N 40°08' E 001°25'8 8.3
2016-Dec-03 15:33N 40°01' E 001°20'397 8.1
2016-Dec-01 14:34N 35°58' W 005°19'  
Track history (hours):
 
Tides and Currents Weather Stations Pressure Air Temp Water Temp Dewpoint Dewpoint Depression Visibility Wind Speed Wind Dir Waves Ship Positions

Rhodanus

Last reported at 2016-Dec-09 22:33 UTC. Time now 2016-Dec-10 22:34 UTC.
Position N 39°01' W 009°50'.

Length 89 m; draft 4.4 m.

Type: Ship. MMSI: 245848000.

Date/timePositionNaut miles runAvg speedWind from/ knotsBaromVisibWave heightAir tempDewpointWater temp
2016-Dec-09 22:33N 39°01' W 009°50'9 9.5
2016-Dec-09 21:33N 38°52' W 009°50'10 9.6
2016-Dec-09 20:33N 38°42' W 009°50'9 9.3
2016-Dec-09 19:33N 38°33' W 009°48'9 8.8
2016-Dec-09 18:32N 38°24' W 009°45'250 7.3
2016-Dec-08 08:26N 35°59' W 005°29'7 8.5
2016-Dec-08 07:33N 36°01' W 005°20'9 8.3
2016-Dec-08 06:30N 36°03' W 005°09'169 8.9
2016-Dec-07 11:29N 36°44' W 001°46'76 9.5
2016-Dec-07 03:32N 37°34' W 000°35'10 9.9
2016-Dec-07 02:32N 37°42' W 000°28'159 9.4
2016-Dec-06 09:31N 39°59' E 001°16'9 8.9
2016-Dec-06 08:33N 40°07' E 001°21'9 8.6
2016-Dec-06 07:33N 40°14' E 001°26'9 8.7
2016-Dec-06 06:33N 40°22' E 001°32'9 8.9
2016-Dec-06 05:33N 40°30' E 001°37'9 8.7
2016-Dec-06 04:33N 40°37' E 001°43'9 8.6
2016-Dec-06 03:33N 40°45' E 001°48'10 9.0
2016-Dec-06 02:24N 40°54' E 001°55'  
2016-Dec-03 22:20N 40°49' E 001°53'6 7.4
2016-Dec-03 21:33N 40°44' E 001°49'8 7.8
2016-Dec-03 20:32N 40°37' E 001°45'8 7.9
2016-Dec-03 19:33N 40°30' E 001°40'8 8.3
2016-Dec-03 18:32N 40°22' E 001°35'8 8.3
2016-Dec-03 17:32N 40°15' E 001°30'8 8.2
2016-Dec-03 16:33N 40°08' E 001°25'8 8.3
2016-Dec-03 15:33N 40°01' E 001°20'397 8.1
2016-Dec-01 14:34N 35°58' W 005°19'  

Dump ship's entire track history